sensor_id;sensor_type;location;lat;lon;timestamp;pressure;altitude;pressure_sealevel;temperature
65738;BMP280;52478;51.844;6.582;2024-02-23T19:32:43;99072.88;;;19.70
65738;BMP280;52478;51.844;6.582;2024-02-23T19:35:10;99071.38;;;19.69
65738;BMP280;52478;51.844;6.582;2024-02-23T19:37:38;99076.38;;;19.70
65738;BMP280;52478;51.844;6.582;2024-02-23T19:40:05;99068.81;;;19.63
65738;BMP280;52478;51.844;6.582;2024-02-23T19:42:33;99075.84;;;19.64
65738;BMP280;52478;51.844;6.582;2024-02-23T19:44:59;99072.13;;;19.62
65738;BMP280;52478;51.844;6.582;2024-02-23T19:47:26;99071.34;;;19.61
65738;BMP280;52478;51.844;6.582;2024-02-23T19:49:55;99070.28;;;19.64
65738;BMP280;52478;51.844;6.582;2024-02-23T19:52:21;99074.88;;;19.62
65738;BMP280;52478;51.844;6.582;2024-02-23T19:54:48;99079.91;;;19.63
65738;BMP280;52478;51.844;6.582;2024-02-23T19:57:15;99073.22;;;19.66
65738;BMP280;52478;51.844;6.582;2024-02-23T19:59:42;99072.13;;;19.62
65738;BMP280;52478;51.844;6.582;2024-02-23T20:02:08;99078.03;;;19.66
65738;BMP280;52478;51.844;6.582;2024-02-23T20:04:38;99078.78;;;19.66
65738;BMP280;52478;51.844;6.582;2024-02-23T20:07:05;99073.97;;;19.67
65738;BMP280;52478;51.844;6.582;2024-02-23T20:09:34;99079.53;;;19.67
65738;BMP280;52478;51.844;6.582;2024-02-23T20:12:01;99073.97;;;19.67
65738;BMP280;52478;51.844;6.582;2024-02-23T20:14:27;99076.22;;;19.68
65738;BMP280;52478;51.844;6.582;2024-02-23T20:16:54;99080.66;;;19.71
65738;BMP280;52478;51.844;6.582;2024-02-23T20:19:21;99080.84;;;19.73
65738;BMP280;52478;51.844;6.582;2024-02-23T20:21:47;99089.91;;;19.74
65738;BMP280;52478;51.844;6.582;2024-02-23T20:24:15;99084.69;;;19.70
65738;BMP280;52478;51.844;6.582;2024-02-23T20:26:41;99097.31;;;19.71
65738;BMP280;52478;51.844;6.582;2024-02-23T20:29:08;99092.69;;;19.74
65738;BMP280;52478;51.844;6.582;2024-02-23T20:31:35;99093.41;;;19.74
65738;BMP280;52478;51.844;6.582;2024-02-23T20:34:02;99099.72;;;19.67
65738;BMP280;52478;51.844;6.582;2024-02-23T20:36:29;99098.56;;;19.70
65738;BMP280;52478;51.844;6.582;2024-02-23T20:38:55;99091.38;;;19.67
65738;BMP280;52478;51.844;6.582;2024-02-23T20:41:24;99098.78;;;19.72
65738;BMP280;52478;51.844;6.582;2024-02-23T20:43:51;99102.88;;;19.71
65738;BMP280;52478;51.844;6.582;2024-02-23T20:46:18;99098.41;;;19.68
65738;BMP280;52478;51.844;6.582;2024-02-23T20:48:44;99105.03;;;19.65
65738;BMP280;52478;51.844;6.582;2024-02-23T20:51:11;99099.31;;;19.63
65738;BMP280;52478;51.844;6.582;2024-02-23T20:53:37;99100.63;;;19.62
65738;BMP280;52478;51.844;6.582;2024-02-23T20:56:05;99106.16;;;19.62
65738;BMP280;52478;51.844;6.582;2024-02-23T20:58:37;99107.44;;;19.61
65738;BMP280;52478;51.844;6.582;2024-02-23T21:01:03;99111.53;;;19.60
65738;BMP280;52478;51.844;6.582;2024-02-23T21:03:31;99111.34;;;19.58
65738;BMP280;52478;51.844;6.582;2024-02-23T21:05:57;99115.59;;;19.59
65738;BMP280;52478;51.844;6.582;2024-02-23T21:08:24;99114.47;;;19.55
65738;BMP280;52478;51.844;6.582;2024-02-23T21:10:50;99118.00;;;19.55
65738;BMP280;52478;51.844;6.582;2024-02-23T21:13:17;99122.44;;;19.51
65738;BMP280;52478;51.844;6.582;2024-02-23T21:15:45;99116.28;;;19.52
65738;BMP280;52478;51.844;6.582;2024-02-23T21:18:11;99108.19;;;19.47
65738;BMP280;52478;51.844;6.582;2024-02-23T21:20:40;99113.16;;;19.48
65738;BMP280;52478;51.844;6.582;2024-02-23T21:23:08;99111.69;;;19.47
65738;BMP280;52478;51.844;6.582;2024-02-23T21:25:35;99111.28;;;19.43
65738;BMP280;52478;51.844;6.582;2024-02-23T21:28:01;99112.91;;;19.31
65738;BMP280;52478;51.844;6.582;2024-02-23T21:30:28;99117.16;;;19.32
65738;BMP280;52478;51.844;6.582;2024-02-23T21:32:57;99104.91;;;19.20
65738;BMP280;52478;51.844;6.582;2024-02-23T21:35:23;99117.53;;;19.21
65738;BMP280;52478;51.844;6.582;2024-02-23T21:37:52;99118.78;;;19.20
65738;BMP280;52478;51.844;6.582;2024-02-23T21:40:18;99122.28;;;19.13
65738;BMP280;52478;51.844;6.582;2024-02-23T21:42:46;99116.53;;;19.11
65738;BMP280;52478;51.844;6.582;2024-02-23T21:45:13;99113.38;;;19.07
65738;BMP280;52478;51.844;6.582;2024-02-23T21:47:39;99121.88;;;19.09
65738;BMP280;52478;51.844;6.582;2024-02-23T21:50:08;99125.22;;;19.08
65738;BMP280;52478;51.844;6.582;2024-02-23T21:52:34;99128.13;;;19.02
65738;BMP280;52478;51.844;6.582;2024-02-23T21:55:02;99129.25;;;18.99
65738;BMP280;52478;51.844;6.582;2024-02-23T21:57:30;99130.31;;;18.96
65738;BMP280;52478;51.844;6.582;2024-02-23T21:59:56;99129.38;;;18.94
65738;BMP280;52478;51.844;6.582;2024-02-23T22:02:23;99137.84;;;18.88
65738;BMP280;52478;51.844;6.582;2024-02-23T22:04:52;99135.28;;;18.91
65738;BMP280;52478;51.844;6.582;2024-02-23T22:07:21;99133.25;;;18.91
65738;BMP280;52478;51.844;6.582;2024-02-23T22:09:48;99138.06;;;18.91
65738;BMP280;52478;51.844;6.582;2024-02-23T22:12:20;99139.34;;;18.90
65738;BMP280;52478;51.844;6.582;2024-02-23T22:14:47;99133.81;;;18.90
65738;BMP280;52478;51.844;6.582;2024-02-23T22:17:13;99133.41;;;18.86
65738;BMP280;52478;51.844;6.582;2024-02-23T22:19:40;99140.97;;;18.85
65738;BMP280;52478;51.844;6.582;2024-02-23T22:22:06;99142.81;;;18.83
65738;BMP280;52478;51.844;6.582;2024-02-23T22:24:34;99134.31;;;18.81
65738;BMP280;52478;51.844;6.582;2024-02-23T22:27:00;99137.28;;;18.83
65738;BMP280;52478;51.844;6.582;2024-02-23T22:29:26;99140.94;;;18.78
65738;BMP280;52478;51.844;6.582;2024-02-23T22:31:53;99138.56;;;18.82
65738;BMP280;52478;51.844;6.582;2024-02-23T22:34:20;99139.44;;;18.77
65738;BMP280;52478;51.844;6.582;2024-02-23T22:36:46;99137.97;;;18.76
65738;BMP280;52478;51.844;6.582;2024-02-23T22:39:13;99142.00;;;18.75
65738;BMP280;52478;51.844;6.582;2024-02-23T22:41:40;99132.41;;;18.76
65738;BMP280;52478;51.844;6.582;2024-02-23T22:44:07;99133.91;;;18.77
65738;BMP280;52478;51.844;6.582;2024-02-23T22:46:33;99140.53;;;18.74
65738;BMP280;52478;51.844;6.582;2024-02-23T22:49:00;99142.75;;;18.75
65738;BMP280;52478;51.844;6.582;2024-02-23T22:51:26;99146.28;;;18.76
65738;BMP280;52478;51.844;6.582;2024-02-23T22:53:53;99143.31;;;18.74
65738;BMP280;52478;51.844;6.582;2024-02-23T22:56:19;99140.13;;;18.70
65738;BMP280;52478;51.844;6.582;2024-02-23T22:58:47;99142.72;;;18.68
65738;BMP280;52478;51.844;6.582;2024-02-23T23:01:13;99145.25;;;18.66
65738;BMP280;52478;51.844;6.582;2024-02-23T23:03:40;99146.00;;;18.66
65738;BMP280;52478;51.844;6.582;2024-02-23T23:06:06;99146.78;;;18.67
65738;BMP280;52478;51.844;6.582;2024-02-23T23:08:33;99142.47;;;18.66
65738;BMP280;52478;51.844;6.582;2024-02-23T23:10:59;99139.72;;;18.66
65738;BMP280;52478;51.844;6.582;2024-02-23T23:13:26;99147.13;;;18.71
65738;BMP280;52478;51.844;6.582;2024-02-23T23:15:53;99144.19;;;18.69
65738;BMP280;52478;51.844;6.582;2024-02-23T23:18:20;99150.78;;;18.66
65738;BMP280;52478;51.844;6.582;2024-02-23T23:20:46;99148.25;;;18.68
65738;BMP280;52478;51.844;6.582;2024-02-23T23:23:13;99157.09;;;18.66
65738;BMP280;52478;51.844;6.582;2024-02-23T23:25:39;99149.66;;;18.61
65738;BMP280;52478;51.844;6.582;2024-02-23T23:28:06;99151.50;;;18.59
65738;BMP280;52478;51.844;6.582;2024-02-23T23:30:32;99151.28;;;18.57
65738;BMP280;52478;51.844;6.582;2024-02-23T23:32:59;99140.03;;;18.55
65738;BMP280;52478;51.844;6.582;2024-02-23T23:35:25;99141.09;;;18.52
65738;BMP280;52478;51.844;6.582;2024-02-23T23:37:52;99134.84;;;18.51
65738;BMP280;52478;51.844;6.582;2024-02-23T23:40:18;99134.22;;;18.45
65738;BMP280;52478;51.844;6.582;2024-02-23T23:42:45;99147.34;;;18.45
65738;BMP280;52478;51.844;6.582;2024-02-23T23:45:11;99138.81;;;18.43
65738;BMP280;52478;51.844;6.582;2024-02-23T23:47:39;99142.88;;;18.42
65738;BMP280;52478;51.844;6.582;2024-02-23T23:50:08;99143.09;;;18.44
65738;BMP280;52478;51.844;6.582;2024-02-23T23:52:35;99141.41;;;18.41
65738;BMP280;52478;51.844;6.582;2024-02-23T23:55:01;99147.81;;;18.36
65738;BMP280;52478;51.844;6.582;2024-02-23T23:57:27;99149.84;;;18.35
65738;BMP280;52478;51.844;6.582;2024-02-23T23:59:54;99151.88;;;18.35
